Terminal Aerodrome Forecast
Issued by NWS Denver/Boulder, CO

Home | Current Version | Previous Version | Text Only | Print | Product List | Glossary On
Versions: 1 2 3 4 5 6 7 8 9 10 11 12 13 14 15 16 17 18 19 20 21 22 23 24 25 26 27 28 29 30 31 32 33 34 35 36 37 38 39 40 41 42 43
000
FTUS45 KBOU 192019 AAA
TAFDEN
TAF AMD
KDEN 192019Z 1920/2024 35014KT P6SM VCSH BKN005 OVC015
     FM192100 36015KT 6SM -SHRASN BKN008 BKN012
      TEMPO 1921/1924 3SM -SN BR OVC004
     FM200100 33010KT P6SM SCT005 BKN010
     FM200500 29007KT P6SM SCT010 BKN020
     FM200900 22009KT P6SM FEW025
     FM201500 24007KT P6SM SCT200
     FM201800 19006KT P6SM SCT100=

USA.gov is the U.S. government's official web portal to all federal, state and local government web resources and services.